sensor_id;sensor_type;location;lat;lon;timestamp;temperature;humidity
15676;DHT22;7938;47.666;9.434;2023-08-07T04:01:52;11.40;99.90
15676;DHT22;7938;47.666;9.434;2023-08-07T04:04:19;11.40;99.90
15676;DHT22;7938;47.666;9.434;2023-08-07T04:06:46;11.30;99.90
15676;DHT22;7938;47.666;9.434;2023-08-07T04:09:13;11.20;99.90
15676;DHT22;7938;47.666;9.434;2023-08-07T04:11:40;11.30;99.90
15676;DHT22;7938;47.666;9.434;2023-08-07T04:14:07;11.30;99.90
15676;DHT22;7938;47.666;9.434;2023-08-07T04:16:34;11.30;99.90
15676;DHT22;7938;47.666;9.434;2023-08-07T04:19:03;11.30;99.90
15676;DHT22;7938;47.666;9.434;2023-08-07T04:21:32;11.30;99.90
15676;DHT22;7938;47.666;9.434;2023-08-07T04:23:59;11.20;99.90
15676;DHT22;7938;47.666;9.434;2023-08-07T04:26:25;11.20;99.90
15676;DHT22;7938;47.666;9.434;2023-08-07T04:28:52;11.20;99.90
15676;DHT22;7938;47.666;9.434;2023-08-07T04:31:19;11.20;99.90
15676;DHT22;7938;47.666;9.434;2023-08-07T04:33:46;11.20;99.90
15676;DHT22;7938;47.666;9.434;2023-08-07T04:36:14;11.20;99.90
15676;DHT22;7938;47.666;9.434;2023-08-07T04:38:41;11.30;99.90
15676;DHT22;7938;47.666;9.434;2023-08-07T04:41:08;11.30;99.90
15676;DHT22;7938;47.666;9.434;2023-08-07T04:43:34;11.30;99.90
15676;DHT22;7938;47.666;9.434;2023-08-07T04:46:01;11.40;99.90
15676;DHT22;7938;47.666;9.434;2023-08-07T04:48:28;11.40;99.90
15676;DHT22;7938;47.666;9.434;2023-08-07T04:50:56;11.50;99.90
15676;DHT22;7938;47.666;9.434;2023-08-07T04:53:24;11.50;99.90
15676;DHT22;7938;47.666;9.434;2023-08-07T04:55:51;11.50;99.90
15676;DHT22;7938;47.666;9.434;2023-08-07T04:58:18;11.60;99.90
15676;DHT22;7938;47.666;9.434;2023-08-07T05:00:45;11.70;99.90
15676;DHT22;7938;47.666;9.434;2023-08-07T05:03:12;11.70;99.90
15676;DHT22;7938;47.666;9.434;2023-08-07T05:05:41;11.80;99.90
15676;DHT22;7938;47.666;9.434;2023-08-07T05:08:07;11.90;99.90
15676;DHT22;7938;47.666;9.434;2023-08-07T05:10:35;12.10;99.90
15676;DHT22;7938;47.666;9.434;2023-08-07T05:13:02;12.10;99.90
15676;DHT22;7938;47.666;9.434;2023-08-07T05:15:29;12.10;99.90
15676;DHT22;7938;47.666;9.434;2023-08-07T05:17:57;12.20;99.90
15676;DHT22;7938;47.666;9.434;2023-08-07T05:20:24;12.20;99.90
15676;DHT22;7938;47.666;9.434;2023-08-07T05:22:50;12.20;99.90
15676;DHT22;7938;47.666;9.434;2023-08-07T05:25:17;12.20;99.90
15676;DHT22;7938;47.666;9.434;2023-08-07T05:27:46;12.20;99.90
15676;DHT22;7938;47.666;9.434;2023-08-07T05:30:13;12.30;99.90
15676;DHT22;7938;47.666;9.434;2023-08-07T05:32:41;11.60;99.90
15676;DHT22;7938;47.666;9.434;2023-08-07T05:35:08;12.40;99.90
15676;DHT22;7938;47.666;9.434;2023-08-07T05:37:35;12.50;99.90
15676;DHT22;7938;47.666;9.434;2023-08-07T05:40:04;12.50;99.90
15676;DHT22;7938;47.666;9.434;2023-08-07T05:42:31;12.50;99.90
15676;DHT22;7938;47.666;9.434;2023-08-07T05:45:00;12.50;99.90
15676;DHT22;7938;47.666;9.434;2023-08-07T05:47:26;12.50;99.90
15676;DHT22;7938;47.666;9.434;2023-08-07T05:49:53;12.50;99.90
15676;DHT22;7938;47.666;9.434;2023-08-07T05:52:20;12.50;99.90
15676;DHT22;7938;47.666;9.434;2023-08-07T05:54:47;12.60;99.90
15676;DHT22;7938;47.666;9.434;2023-08-07T05:57:14;12.50;99.90
15676;DHT22;7938;47.666;9.434;2023-08-07T05:59:41;12.40;99.90
15676;DHT22;7938;47.666;9.434;2023-08-07T06:02:09;12.60;99.90
15676;DHT22;7938;47.666;9.434;2023-08-07T06:04:37;12.60;99.90
15676;DHT22;7938;47.666;9.434;2023-08-07T06:07:05;12.70;99.90
15676;DHT22;7938;47.666;9.434;2023-08-07T06:09:32;12.80;99.90
15676;DHT22;7938;47.666;9.434;2023-08-07T06:11:59;12.80;99.90
15676;DHT22;7938;47.666;9.434;2023-08-07T06:14:26;12.80;99.90
15676;DHT22;7938;47.666;9.434;2023-08-07T06:16:54;12.80;99.90
15676;DHT22;7938;47.666;9.434;2023-08-07T06:19:24;12.70;99.90
15676;DHT22;7938;47.666;9.434;2023-08-07T06:21:52;12.70;99.90
15676;DHT22;7938;47.666;9.434;2023-08-07T06:24:19;12.70;99.90
15676;DHT22;7938;47.666;9.434;2023-08-07T06:26:46;12.80;99.90
15676;DHT22;7938;47.666;9.434;2023-08-07T06:29:13;12.80;99.90
15676;DHT22;7938;47.666;9.434;2023-08-07T06:31:40;12.90;99.90
15676;DHT22;7938;47.666;9.434;2023-08-07T06:34:06;12.90;99.90
15676;DHT22;7938;47.666;9.434;2023-08-07T06:36:35;12.90;99.90
15676;DHT22;7938;47.666;9.434;2023-08-07T06:39:01;13.00;99.90
15676;DHT22;7938;47.666;9.434;2023-08-07T06:41:29;12.80;99.90
15676;DHT22;7938;47.666;9.434;2023-08-07T06:43:56;12.80;99.90
15676;DHT22;7938;47.666;9.434;2023-08-07T06:46:23;12.80;99.90
15676;DHT22;7938;47.666;9.434;2023-08-07T06:48:52;12.80;99.90
15676;DHT22;7938;47.666;9.434;2023-08-07T06:51:19;13.00;99.90
15676;DHT22;7938;47.666;9.434;2023-08-07T06:53:47;13.10;99.90
15676;DHT22;7938;47.666;9.434;2023-08-07T06:56:14;13.20;99.90
15676;DHT22;7938;47.666;9.434;2023-08-07T06:58:40;13.40;99.90
15676;DHT22;7938;47.666;9.434;2023-08-07T07:01:07;13.30;99.90
15676;DHT22;7938;47.666;9.434;2023-08-07T07:03:34;13.20;99.90
15676;DHT22;7938;47.666;9.434;2023-08-07T07:06:01;12.70;99.90
15676;DHT22;7938;47.666;9.434;2023-08-07T07:08:28;12.60;99.90
15676;DHT22;7938;47.666;9.434;2023-08-07T07:10:56;12.40;99.90
15676;DHT22;7938;47.666;9.434;2023-08-07T07:13:24;12.50;99.90
15676;DHT22;7938;47.666;9.434;2023-08-07T07:15:53;12.50;99.90
15676;DHT22;7938;47.666;9.434;2023-08-07T07:18:20;12.50;99.90
15676;DHT22;7938;47.666;9.434;2023-08-07T07:20:47;12.80;99.90
15676;DHT22;7938;47.666;9.434;2023-08-07T07:23:16;12.80;99.90
15676;DHT22;7938;47.666;9.434;2023-08-07T07:25:43;13.00;99.90
15676;DHT22;7938;47.666;9.434;2023-08-07T07:28:11;13.20;99.90
15676;DHT22;7938;47.666;9.434;2023-08-07T07:30:39;13.40;99.90
15676;DHT22;7938;47.666;9.434;2023-08-07T07:33:06;13.40;99.90
15676;DHT22;7938;47.666;9.434;2023-08-07T07:35:37;13.40;99.90
15676;DHT22;7938;47.666;9.434;2023-08-07T07:38:04;13.60;99.90
15676;DHT22;7938;47.666;9.434;2023-08-07T07:40:31;13.60;99.90
15676;DHT22;7938;47.666;9.434;2023-08-07T07:42:57;13.60;99.90
15676;DHT22;7938;47.666;9.434;2023-08-07T07:45:28;13.50;99.90
15676;DHT22;7938;47.666;9.434;2023-08-07T07:47:55;13.50;99.90
15676;DHT22;7938;47.666;9.434;2023-08-07T07:50:22;13.10;99.90
15676;DHT22;7938;47.666;9.434;2023-08-07T07:52:49;13.50;99.90
15676;DHT22;7938;47.666;9.434;2023-08-07T07:55:16;13.60;99.90
15676;DHT22;7938;47.666;9.434;2023-08-07T07:57:42;13.80;99.90
15676;DHT22;7938;47.666;9.434;2023-08-07T08:00:10;13.60;99.90
15676;DHT22;7938;47.666;9.434;2023-08-07T08:02:40;13.30;99.90
15676;DHT22;7938;47.666;9.434;2023-08-07T08:05:09;13.30;99.90
15676;DHT22;7938;47.666;9.434;2023-08-07T08:07:37;13.40;99.90
15676;DHT22;7938;47.666;9.434;2023-08-07T08:10:06;13.60;99.90
15676;DHT22;7938;47.666;9.434;2023-08-07T08:12:34;13.80;99.90
15676;DHT22;7938;47.666;9.434;2023-08-07T08:15:01;13.80;99.90
15676;DHT22;7938;47.666;9.434;2023-08-07T08:17:28;13.80;99.90
15676;DHT22;7938;47.666;9.434;2023-08-07T08:19:56;13.90;99.90
15676;DHT22;7938;47.666;9.434;2023-08-07T08:22:23;14.00;99.90
15676;DHT22;7938;47.666;9.434;2023-08-07T08:24:50;14.00;99.90
15676;DHT22;7938;47.666;9.434;2023-08-07T08:27:18;14.10;99.90
15676;DHT22;7938;47.666;9.434;2023-08-07T08:29:45;14.10;99.90
15676;DHT22;7938;47.666;9.434;2023-08-07T08:32:12;14.20;99.90
15676;DHT22;7938;47.666;9.434;2023-08-07T08:34:40;14.30;99.90
15676;DHT22;7938;47.666;9.434;2023-08-07T08:37:08;14.40;99.90
15676;DHT22;7938;47.666;9.434;2023-08-07T08:39:36;14.60;99.90
15676;DHT22;7938;47.666;9.434;2023-08-07T08:42:04;14.60;99.90
15676;DHT22;7938;47.666;9.434;2023-08-07T08:44:36;14.60;99.90
15676;DHT22;7938;47.666;9.434;2023-08-07T08:47:04;14.60;99.90
15676;DHT22;7938;47.666;9.434;2023-08-07T08:49:35;14.70;99.90
15676;DHT22;7938;47.666;9.434;2023-08-07T08:52:03;14.90;99.90
15676;DHT22;7938;47.666;9.434;2023-08-07T08:54:32;14.90;99.90
15676;DHT22;7938;47.666;9.434;2023-08-07T08:56:59;15.00;99.90
15676;DHT22;7938;47.666;9.434;2023-08-07T08:59:26;15.00;99.90
15676;DHT22;7938;47.666;9.434;2023-08-07T09:01:54;15.10;99.90
15676;DHT22;7938;47.666;9.434;2023-08-07T09:04:21;15.10;99.90
15676;DHT22;7938;47.666;9.434;2023-08-07T09:06:48;15.20;99.90
15676;DHT22;7938;47.666;9.434;2023-08-07T09:09:17;15.20;99.90
15676;DHT22;7938;47.666;9.434;2023-08-07T09:11:48;15.60;99.90
15676;DHT22;7938;47.666;9.434;2023-08-07T09:14:19;15.40;99.90
15676;DHT22;7938;47.666;9.434;2023-08-07T09:16:48;15.60;99.90
15676;DHT22;7938;47.666;9.434;2023-08-07T09:19:15;15.60;99.90
15676;DHT22;7938;47.666;9.434;2023-08-07T09:21:41;15.80;99.90
15676;DHT22;7938;47.666;9.434;2023-08-07T09:24:09;15.80;99.90
15676;DHT22;7938;47.666;9.434;2023-08-07T09:26:37;16.00;99.90
15676;DHT22;7938;47.666;9.434;2023-08-07T09:29:07;15.90;99.90
15676;DHT22;7938;47.666;9.434;2023-08-07T09:31:36;16.00;99.90
15676;DHT22;7938;47.666;9.434;2023-08-07T09:34:04;16.20;99.90
15676;DHT22;7938;47.666;9.434;2023-08-07T09:36:31;16.40;99.90
15676;DHT22;7938;47.666;9.434;2023-08-07T09:39:00;16.30;99.90
15676;DHT22;7938;47.666;9.434;2023-08-07T09:41:31;16.40;99.90
15676;DHT22;7938;47.666;9.434;2023-08-07T09:43:58;16.40;99.90
15676;DHT22;7938;47.666;9.434;2023-08-07T09:46:29;16.10;99.90
15676;DHT22;7938;47.666;9.434;2023-08-07T09:49:02;16.10;99.90
15676;DHT22;7938;47.666;9.434;2023-08-07T09:51:43;15.80;99.90
15676;DHT22;7938;47.666;9.434;2023-08-07T09:54:10;15.50;99.90
15676;DHT22;7938;47.666;9.434;2023-08-07T09:56:38;14.90;99.90
15676;DHT22;7938;47.666;9.434;2023-08-07T09:59:05;14.50;99.90
15676;DHT22;7938;47.666;9.434;2023-08-07T10:01:33;14.00;99.90
15676;DHT22;7938;47.666;9.434;2023-08-07T10:04:03;13.80;99.90
15676;DHT22;7938;47.666;9.434;2023-08-07T10:06:30;13.60;99.90
15676;DHT22;7938;47.666;9.434;2023-08-07T10:08:57;13.40;99.90
15676;DHT22;7938;47.666;9.434;2023-08-07T10:11:26;13.50;99.90
15676;DHT22;7938;47.666;9.434;2023-08-07T10:13:53;13.60;99.90
15676;DHT22;7938;47.666;9.434;2023-08-07T10:16:22;13.80;99.90
15676;DHT22;7938;47.666;9.434;2023-08-07T10:18:51;13.90;99.90
15676;DHT22;7938;47.666;9.434;2023-08-07T10:21:18;14.20;99.90
15676;DHT22;7938;47.666;9.434;2023-08-07T10:23:46;14.20;99.90
15676;DHT22;7938;47.666;9.434;2023-08-07T10:26:14;14.20;99.90
15676;DHT22;7938;47.666;9.434;2023-08-07T10:28:42;14.30;99.90
15676;DHT22;7938;47.666;9.434;2023-08-07T10:31:11;14.30;99.90
15676;DHT22;7938;47.666;9.434;2023-08-07T10:33:40;14.40;99.90
15676;DHT22;7938;47.666;9.434;2023-08-07T10:36:11;14.70;99.90
15676;DHT22;7938;47.666;9.434;2023-08-07T10:38:38;15.20;99.90
15676;DHT22;7938;47.666;9.434;2023-08-07T10:41:09;15.20;99.90
15676;DHT22;7938;47.666;9.434;2023-08-07T10:43:37;15.30;99.90
15676;DHT22;7938;47.666;9.434;2023-08-07T10:46:05;15.50;99.90
15676;DHT22;7938;47.666;9.434;2023-08-07T10:48:38;15.50;99.90
15676;DHT22;7938;47.666;9.434;2023-08-07T10:51:05;15.60;99.90
15676;DHT22;7938;47.666;9.434;2023-08-07T10:53:35;15.70;99.90
15676;DHT22;7938;47.666;9.434;2023-08-07T10:56:03;15.70;99.90
15676;DHT22;7938;47.666;9.434;2023-08-07T10:58:31;15.70;99.90
15676;DHT22;7938;47.666;9.434;2023-08-07T11:01:21;15.40;99.90
15676;DHT22;7938;47.666;9.434;2023-08-07T11:03:50;15.40;99.90
15676;DHT22;7938;47.666;9.434;2023-08-07T11:06:18;15.40;99.90
15676;DHT22;7938;47.666;9.434;2023-08-07T11:08:50;15.60;99.90
15676;DHT22;7938;47.666;9.434;2023-08-07T11:13:45;16.10;99.90
15676;DHT22;7938;47.666;9.434;2023-08-07T11:16:13;16.00;99.90
15676;DHT22;7938;47.666;9.434;2023-08-07T11:18:40;15.80;99.90
15676;DHT22;7938;47.666;9.434;2023-08-07T11:21:07;15.70;99.90
15676;DHT22;7938;47.666;9.434;2023-08-07T11:23:36;15.80;99.90
15676;DHT22;7938;47.666;9.434;2023-08-07T11:26:04;15.80;99.90
15676;DHT22;7938;47.666;9.434;2023-08-07T11:28:31;16.00;99.90
15676;DHT22;7938;47.666;9.434;2023-08-07T11:30:58;16.00;99.90
15676;DHT22;7938;47.666;9.434;2023-08-07T11:33:25;16.00;99.90
15676;DHT22;7938;47.666;9.434;2023-08-07T11:35:53;16.20;99.90
15676;DHT22;7938;47.666;9.434;2023-08-07T11:38:30;16.50;99.90
15676;DHT22;7938;47.666;9.434;2023-08-07T11:40:58;17.00;99.90
15676;DHT22;7938;47.666;9.434;2023-08-07T11:43:28;17.00;99.90
15676;DHT22;7938;47.666;9.434;2023-08-07T11:45:57;16.80;99.90
15676;DHT22;7938;47.666;9.434;2023-08-07T11:48:24;16.80;99.90
15676;DHT22;7938;47.666;9.434;2023-08-07T11:50:52;16.60;99.90
15676;DHT22;7938;47.666;9.434;2023-08-07T11:53:19;16.60;99.90
15676;DHT22;7938;47.666;9.434;2023-08-07T11:55:51;16.60;99.90
15676;DHT22;7938;47.666;9.434;2023-08-07T11:58:19;16.70;99.90
15676;DHT22;7938;47.666;9.434;2023-08-07T12:00:47;16.60;99.90
15676;DHT22;7938;47.666;9.434;2023-08-07T12:03:24;16.60;99.90
15676;DHT22;7938;47.666;9.434;2023-08-07T12:05:52;16.70;99.90
15676;DHT22;7938;47.666;9.434;2023-08-07T12:08:19;16.70;99.90
15676;DHT22;7938;47.666;9.434;2023-08-07T12:10:49;16.50;99.90
15676;DHT22;7938;47.666;9.434;2023-08-07T12:13:19;16.50;99.90
15676;DHT22;7938;47.666;9.434;2023-08-07T12:15:51;16.60;99.90
15676;DHT22;7938;47.666;9.434;2023-08-07T12:18:18;16.50;99.90
15676;DHT22;7938;47.666;9.434;2023-08-07T12:20:45;16.60;99.90
15676;DHT22;7938;47.666;9.434;2023-08-07T12:23:14;16.70;99.90
15676;DHT22;7938;47.666;9.434;2023-08-07T12:25:42;16.60;99.90
15676;DHT22;7938;47.666;9.434;2023-08-07T12:28:08;16.80;99.90
15676;DHT22;7938;47.666;9.434;2023-08-07T12:30:36;17.30;99.90
15676;DHT22;7938;47.666;9.434;2023-08-07T12:33:05;17.30;99.90
15676;DHT22;7938;47.666;9.434;2023-08-07T12:35:33;17.70;99.90
15676;DHT22;7938;47.666;9.434;2023-08-07T12:38:00;17.90;99.90
15676;DHT22;7938;47.666;9.434;2023-08-07T12:40:27;18.10;99.90
15676;DHT22;7938;47.666;9.434;2023-08-07T12:42:54;18.10;99.90
15676;DHT22;7938;47.666;9.434;2023-08-07T12:45:21;18.40;99.90
15676;DHT22;7938;47.666;9.434;2023-08-07T12:47:48;18.40;99.90
15676;DHT22;7938;47.666;9.434;2023-08-07T12:50:16;17.90;99.90
15676;DHT22;7938;47.666;9.434;2023-08-07T12:52:43;17.60;99.90
15676;DHT22;7938;47.666;9.434;2023-08-07T12:55:10;16.90;99.90
15676;DHT22;7938;47.666;9.434;2023-08-07T12:57:37;16.30;99.90
15676;DHT22;7938;47.666;9.434;2023-08-07T13:00:06;16.00;99.90
15676;DHT22;7938;47.666;9.434;2023-08-07T13:02:33;16.00;99.90
15676;DHT22;7938;47.666;9.434;2023-08-07T13:05:00;16.00;99.90
15676;DHT22;7938;47.666;9.434;2023-08-07T13:07:29;15.90;99.90
15676;DHT22;7938;47.666;9.434;2023-08-07T13:09:55;15.70;99.90
15676;DHT22;7938;47.666;9.434;2023-08-07T13:12:22;15.60;99.90
15676;DHT22;7938;47.666;9.434;2023-08-07T13:14:49;15.90;99.90
15676;DHT22;7938;47.666;9.434;2023-08-07T13:17:16;16.40;99.90
15676;DHT22;7938;47.666;9.434;2023-08-07T13:19:43;16.50;99.90
15676;DHT22;7938;47.666;9.434;2023-08-07T13:22:10;16.80;99.90
15676;DHT22;7938;47.666;9.434;2023-08-07T13:24:39;17.00;99.90
15676;DHT22;7938;47.666;9.434;2023-08-07T13:27:06;17.30;99.90
15676;DHT22;7938;47.666;9.434;2023-08-07T13:29:33;17.70;99.90
15676;DHT22;7938;47.666;9.434;2023-08-07T13:32:01;17.90;99.90
15676;DHT22;7938;47.666;9.434;2023-08-07T13:34:30;17.90;99.90
15676;DHT22;7938;47.666;9.434;2023-08-07T13:36:57;18.10;99.90
15676;DHT22;7938;47.666;9.434;2023-08-07T13:39:24;18.40;99.90
15676;DHT22;7938;47.666;9.434;2023-08-07T13:41:53;18.00;99.70
15676;DHT22;7938;47.666;9.434;2023-08-07T13:44:20;17.80;99.90
15676;DHT22;7938;47.666;9.434;2023-08-07T13:46:48;18.10;99.10
15676;DHT22;7938;47.666;9.434;2023-08-07T13:49:15;18.10;99.40
15676;DHT22;7938;47.666;9.434;2023-08-07T13:51:42;18.50;97.70
15676;DHT22;7938;47.666;9.434;2023-08-07T13:54:09;18.90;97.90
15676;DHT22;7938;47.666;9.434;2023-08-07T13:56:37;19.40;97.80
15676;DHT22;7938;47.666;9.434;2023-08-07T13:59:05;19.40;97.90
15676;DHT22;7938;47.666;9.434;2023-08-07T14:01:33;19.20;98.30
15676;DHT22;7938;47.666;9.434;2023-08-07T14:04:00;19.10;97.70
15676;DHT22;7938;47.666;9.434;2023-08-07T14:06:27;19.30;97.10
15676;DHT22;7938;47.666;9.434;2023-08-07T14:08:54;19.80;96.70
15676;DHT22;7938;47.666;9.434;2023-08-07T14:11:21;18.90;97.30
15676;DHT22;7938;47.666;9.434;2023-08-07T14:13:53;18.10;97.40
15676;DHT22;7938;47.666;9.434;2023-08-07T14:16:21;17.50;99.10
15676;DHT22;7938;47.666;9.434;2023-08-07T14:18:48;18.50;99.00
15676;DHT22;7938;47.666;9.434;2023-08-07T14:21:15;19.50;98.90
15676;DHT22;7938;47.666;9.434;2023-08-07T14:23:42;19.70;98.70
15676;DHT22;7938;47.666;9.434;2023-08-07T14:26:11;20.00;98.30
15676;DHT22;7938;47.666;9.434;2023-08-07T14:31:06;20.60;96.20
15676;DHT22;7938;47.666;9.434;2023-08-07T14:33:35;20.80;95.40
15676;DHT22;7938;47.666;9.434;2023-08-07T14:36:02;21.40;95.30
15676;DHT22;7938;47.666;9.434;2023-08-07T14:38:29;22.10;94.30
15676;DHT22;7938;47.666;9.434;2023-08-07T14:40:56;21.60;94.30
15676;DHT22;7938;47.666;9.434;2023-08-07T14:43:25;20.90;94.70
15676;DHT22;7938;47.666;9.434;2023-08-07T14:45:55;19.90;95.90
15676;DHT22;7938;47.666;9.434;2023-08-07T14:48:22;18.90;97.00
15676;DHT22;7938;47.666;9.434;2023-08-07T14:50:50;18.50;98.10
15676;DHT22;7938;47.666;9.434;2023-08-07T14:53:17;18.60;98.40
15676;DHT22;7938;47.666;9.434;2023-08-07T14:55:44;18.40;97.80
15676;DHT22;7938;47.666;9.434;2023-08-07T14:58:11;17.90;97.80
15676;DHT22;7938;47.666;9.434;2023-08-07T15:00:38;17.40;97.80
15676;DHT22;7938;47.666;9.434;2023-08-07T15:03:05;17.40;97.60
15676;DHT22;7938;47.666;9.434;2023-08-07T15:05:32;19.50;94.60
15676;DHT22;7938;47.666;9.434;2023-08-07T15:08:01;19.50;93.60
15676;DHT22;7938;47.666;9.434;2023-08-07T15:10:28;22.60;90.40
15676;DHT22;7938;47.666;9.434;2023-08-07T15:12:55;22.50;90.20
15676;DHT22;7938;47.666;9.434;2023-08-07T15:15:23;22.90;89.50
15676;DHT22;7938;47.666;9.434;2023-08-07T15:17:49;22.50;91.50
15676;DHT22;7938;47.666;9.434;2023-08-07T15:20:18;24.30;90.40
15676;DHT22;7938;47.666;9.434;2023-08-07T15:22:46;24.20;89.70
15676;DHT22;7938;47.666;9.434;2023-08-07T15:25:14;23.50;87.70
15676;DHT22;7938;47.666;9.434;2023-08-07T15:27:41;21.40;91.60
15676;DHT22;7938;47.666;9.434;2023-08-07T15:30:09;19.10;94.50
15676;DHT22;7938;47.666;9.434;2023-08-07T15:32:36;18.60;95.50
15676;DHT22;7938;47.666;9.434;2023-08-07T15:35:04;19.80;95.40
15676;DHT22;7938;47.666;9.434;2023-08-07T15:37:31;20.10;94.30
15676;DHT22;7938;47.666;9.434;2023-08-07T15:39:58;21.50;92.90
15676;DHT22;7938;47.666;9.434;2023-08-07T15:42:26;23.90;90.30
15676;DHT22;7938;47.666;9.434;2023-08-07T15:44:53;24.20;88.10
15676;DHT22;7938;47.666;9.434;2023-08-07T15:47:20;24.00;87.20
15676;DHT22;7938;47.666;9.434;2023-08-07T15:49:47;21.50;90.40
15676;DHT22;7938;47.666;9.434;2023-08-07T15:52:14;18.10;94.10
15676;DHT22;7938;47.666;9.434;2023-08-07T15:54:41;17.60;96.30
15676;DHT22;7938;47.666;9.434;2023-08-07T15:57:11;17.30;96.80
15676;DHT22;7938;47.666;9.434;2023-08-07T15:59:40;17.10;97.30
15676;DHT22;7938;47.666;9.434;2023-08-07T16:02:07;16.80;97.80
15676;DHT22;7938;47.666;9.434;2023-08-07T16:04:34;16.80;98.50
15676;DHT22;7938;47.666;9.434;2023-08-07T16:07:04;16.70;99.10
15676;DHT22;7938;47.666;9.434;2023-08-07T16:09:31;16.50;99.00
15676;DHT22;7938;47.666;9.434;2023-08-07T16:11:58;16.50;98.60
15676;DHT22;7938;47.666;9.434;2023-08-07T16:14:25;16.50;99.90
15676;DHT22;7938;47.666;9.434;2023-08-07T16:16:53;16.40;99.90
15676;DHT22;7938;47.666;9.434;2023-08-07T16:19:20;16.30;99.90
15676;DHT22;7938;47.666;9.434;2023-08-07T16:21:47;16.10;99.90
15676;DHT22;7938;47.666;9.434;2023-08-07T16:24:17;16.10;99.90
15676;DHT22;7938;47.666;9.434;2023-08-07T16:26:45;16.00;99.90
15676;DHT22;7938;47.666;9.434;2023-08-07T16:29:12;16.00;99.90
15676;DHT22;7938;47.666;9.434;2023-08-07T16:31:39;15.50;99.90
15676;DHT22;7938;47.666;9.434;2023-08-07T16:34:07;14.60;99.90
15676;DHT22;7938;47.666;9.434;2023-08-07T16:36:34;14.10;99.90
15676;DHT22;7938;47.666;9.434;2023-08-07T16:39:03;14.00;99.90
15676;DHT22;7938;47.666;9.434;2023-08-07T16:41:30;14.00;99.90
15676;DHT22;7938;47.666;9.434;2023-08-07T16:43:59;14.00;99.90
15676;DHT22;7938;47.666;9.434;2023-08-07T16:46:25;14.30;99.90
15676;DHT22;7938;47.666;9.434;2023-08-07T16:48:52;14.30;99.90
15676;DHT22;7938;47.666;9.434;2023-08-07T16:51:20;14.30;99.90
15676;DHT22;7938;47.666;9.434;2023-08-07T16:53:47;14.40;99.90
15676;DHT22;7938;47.666;9.434;2023-08-07T16:56:14;14.40;99.90
15676;DHT22;7938;47.666;9.434;2023-08-07T16:58:41;14.50;99.90
15676;DHT22;7938;47.666;9.434;2023-08-07T17:01:10;15.20;99.90
15676;DHT22;7938;47.666;9.434;2023-08-07T17:03:37;14.80;99.90
15676;DHT22;7938;47.666;9.434;2023-08-07T17:06:04;14.70;99.90
15676;DHT22;7938;47.666;9.434;2023-08-07T17:08:32;14.60;99.90
15676;DHT22;7938;47.666;9.434;2023-08-07T17:10:59;14.60;99.90
15676;DHT22;7938;47.666;9.434;2023-08-07T17:13:26;14.50;99.90
15676;DHT22;7938;47.666;9.434;2023-08-07T17:15:54;14.60;99.90
15676;DHT22;7938;47.666;9.434;2023-08-07T17:18:21;14.60;99.90
15676;DHT22;7938;47.666;9.434;2023-08-07T17:20:48;14.70;99.90
15676;DHT22;7938;47.666;9.434;2023-08-07T17:23:15;15.60;99.90
15676;DHT22;7938;47.666;9.434;2023-08-07T17:25:43;18.40;99.90
15676;DHT22;7938;47.666;9.434;2023-08-07T17:28:10;18.90;99.90
15676;DHT22;7938;47.666;9.434;2023-08-07T17:30:37;18.40;99.90
15676;DHT22;7938;47.666;9.434;2023-08-07T17:33:04;17.50;99.90
15676;DHT22;7938;47.666;9.434;2023-08-07T17:35:31;16.50;99.90
15676;DHT22;7938;47.666;9.434;2023-08-07T17:38:00;16.50;99.90
15676;DHT22;7938;47.666;9.434;2023-08-07T17:40:26;16.30;99.90
15676;DHT22;7938;47.666;9.434;2023-08-07T17:42:55;15.90;99.90
15676;DHT22;7938;47.666;9.434;2023-08-07T17:45:22;15.50;99.90
15676;DHT22;7938;47.666;9.434;2023-08-07T17:47:49;15.50;99.90
15676;DHT22;7938;47.666;9.434;2023-08-07T17:50:16;15.30;99.90
15676;DHT22;7938;47.666;9.434;2023-08-07T17:52:43;15.30;99.90
15676;DHT22;7938;47.666;9.434;2023-08-07T17:55:10;15.20;99.90
15676;DHT22;7938;47.666;9.434;2023-08-07T17:57:38;15.20;99.90
15676;DHT22;7938;47.666;9.434;2023-08-07T18:00:07;15.20;99.90
15676;DHT22;7938;47.666;9.434;2023-08-07T18:02:35;15.00;99.90
15676;DHT22;7938;47.666;9.434;2023-08-07T18:05:03;14.80;99.90
15676;DHT22;7938;47.666;9.434;2023-08-07T18:07:31;14.60;99.90
15676;DHT22;7938;47.666;9.434;2023-08-07T18:09:59;14.60;99.90
15676;DHT22;7938;47.666;9.434;2023-08-07T18:12:26;14.60;99.90
15676;DHT22;7938;47.666;9.434;2023-08-07T18:14:53;14.60;99.90
15676;DHT22;7938;47.666;9.434;2023-08-07T18:17:23;14.60;99.90
15676;DHT22;7938;47.666;9.434;2023-08-07T18:19:50;14.60;99.90
15676;DHT22;7938;47.666;9.434;2023-08-07T18:22:18;14.50;99.90
15676;DHT22;7938;47.666;9.434;2023-08-07T18:24:45;14.50;99.90
15676;DHT22;7938;47.666;9.434;2023-08-07T18:27:12;14.50;99.90
15676;DHT22;7938;47.666;9.434;2023-08-07T18:29:40;14.50;99.90
15676;DHT22;7938;47.666;9.434;2023-08-07T18:32:07;14.50;99.90
15676;DHT22;7938;47.666;9.434;2023-08-07T18:34:36;14.60;99.90
15676;DHT22;7938;47.666;9.434;2023-08-07T18:37:03;14.50;99.90
15676;DHT22;7938;47.666;9.434;2023-08-07T18:39:30;14.50;99.90
15676;DHT22;7938;47.666;9.434;2023-08-07T18:41:57;14.50;99.90
15676;DHT22;7938;47.666;9.434;2023-08-07T18:44:24;14.50;99.90
15676;DHT22;7938;47.666;9.434;2023-08-07T18:46:51;14.40;99.90
15676;DHT22;7938;47.666;9.434;2023-08-07T18:49:18;14.40;99.90
15676;DHT22;7938;47.666;9.434;2023-08-07T18:51:47;14.40;99.90
15676;DHT22;7938;47.666;9.434;2023-08-07T18:54:14;14.40;99.90
15676;DHT22;7938;47.666;9.434;2023-08-07T18:56:41;14.30;99.90
15676;DHT22;7938;47.666;9.434;2023-08-07T18:59:08;14.20;99.90
15676;DHT22;7938;47.666;9.434;2023-08-07T19:01:35;14.10;99.90
15676;DHT22;7938;47.666;9.434;2023-08-07T19:04:02;14.00;99.90
15676;DHT22;7938;47.666;9.434;2023-08-07T19:06:29;13.90;99.90
15676;DHT22;7938;47.666;9.434;2023-08-07T19:08:59;13.90;99.90
15676;DHT22;7938;47.666;9.434;2023-08-07T19:11:26;13.90;99.90
15676;DHT22;7938;47.666;9.434;2023-08-07T19:13:53;13.80;99.90
15676;DHT22;7938;47.666;9.434;2023-08-07T19:16:20;13.90;99.90
15676;DHT22;7938;47.666;9.434;2023-08-07T19:18:48;13.80;99.90
15676;DHT22;7938;47.666;9.434;2023-08-07T19:21:15;13.90;99.90
15676;DHT22;7938;47.666;9.434;2023-08-07T19:23:42;13.80;99.90
15676;DHT22;7938;47.666;9.434;2023-08-07T19:26:11;13.80;99.90
15676;DHT22;7938;47.666;9.434;2023-08-07T19:28:38;13.70;99.90
15676;DHT22;7938;47.666;9.434;2023-08-07T19:31:05;13.70;99.90
15676;DHT22;7938;47.666;9.434;2023-08-07T19:33:32;13.70;99.90
15676;DHT22;7938;47.666;9.434;2023-08-07T19:35:59;13.70;99.90
15676;DHT22;7938;47.666;9.434;2023-08-07T19:38:27;13.70;99.90
15676;DHT22;7938;47.666;9.434;2023-08-07T19:40:54;13.60;99.90
15676;DHT22;7938;47.666;9.434;2023-08-07T19:43:22;13.40;99.90
15676;DHT22;7938;47.666;9.434;2023-08-07T19:45:49;13.30;99.90
15676;DHT22;7938;47.666;9.434;2023-08-07T19:48:16;13.20;99.90
15676;DHT22;7938;47.666;9.434;2023-08-07T19:50:43;13.10;99.90
15676;DHT22;7938;47.666;9.434;2023-08-07T19:53:10;13.00;99.90